Time;durP1;ratioP1;P1;durP2;ratioP2;P2;SDS_P1;SDS_P2;PMS_P1;PMS_P2;Temp;Humidity;BMP_temperature;BMP_pressure;BME280_temperature;BME280_humidity;BME280_pressure;Samples;Min_cycle;Max_cycle;Signal;HPM_P1;HPM_P2
2024/01/21 00:00:52;;;;;;;14.68;7.90;;;;;;;;;;5076878;28;20076;-62
2024/01/21 00:03:18;;;;;;;12.32;7.40;;;;;;;;;;5092749;28;20059;-65
2024/01/21 00:05:45;;;;;;;15.52;7.53;;;;;;;;;;5082565;28;20061;-62
2024/01/21 00:08:11;;;;;;;12.60;7.00;;;;;;;;;;5087066;28;20036;-63
2024/01/21 00:10:38;;;;;;;12.43;7.25;;;;;;;;;;5087862;28;20131;-61
2024/01/21 00:13:04;;;;;;;12.27;7.25;;;;;;;;;;5078666;28;20048;-61
2024/01/21 00:15:31;;;;;;;13.18;7.18;;;;;;;;;;5085757;28;20075;-61
2024/01/21 00:17:57;;;;;;;14.20;7.57;;;;;;;;;;5082712;28;20113;-62
2024/01/21 00:20:24;;;;;;;12.57;7.93;;;;;;;;;;5088834;28;20044;-61
2024/01/21 00:22:50;;;;;;;15.20;7.43;;;;;;;;;;5087154;28;20044;-62
2024/01/21 00:25:17;;;;;;;12.13;6.55;;;;;;;;;;5086019;28;20134;-62
2024/01/21 00:27:43;;;;;;;13.60;6.95;;;;;;;;;;5084483;28;20048;-61
2024/01/21 00:30:09;;;;;;;13.50;6.82;;;;;;;;;;5081201;28;20048;-61
2024/01/21 00:32:36;;;;;;;14.85;7.30;;;;;;;;;;5087095;28;20052;-60
2024/01/21 00:35:03;;;;;;;13.43;7.18;;;;;;;;;;5081962;28;20456;-62
2024/01/21 00:37:29;;;;;;;11.90;6.82;;;;;;;;;;5093109;28;20051;-61
2024/01/21 00:39:55;;;;;;;14.38;7.45;;;;;;;;;;5069556;28;20525;-62
2024/01/21 00:42:22;;;;;;;12.05;7.10;;;;;;;;;;5078997;28;20105;-61
2024/01/21 00:44:49;;;;;;;10.65;6.15;;;;;;;;;;5089940;28;20083;-61
2024/01/21 00:47:15;;;;;;;13.18;7.80;;;;;;;;;;5082079;28;20048;-60
2024/01/21 00:49:42;;;;;;;12.27;6.65;;;;;;;;;;5087665;28;20044;-62
2024/01/21 00:52:08;;;;;;;13.02;7.90;;;;;;;;;;5067901;28;20047;-60
2024/01/21 00:54:35;;;;;;;14.93;7.78;;;;;;;;;;5076215;28;20160;-64
2024/01/21 00:57:02;;;;;;;12.77;7.03;;;;;;;;;;5093945;28;20051;-60
2024/01/21 00:59:29;;;;;;;15.18;7.45;;;;;;;;;;5088949;28;20040;-60
2024/01/21 01:01:55;;;;;;;11.85;6.80;;;;;;;;;;5079392;28;20048;-61
2024/01/21 01:04:21;;;;;;;11.82;6.25;;;;;;;;;;5063754;28;20070;-60
2024/01/21 01:06:48;;;;;;;10.88;6.10;;;;;;;;;;5079866;28;20048;-61
2024/01/21 01:09:15;;;;;;;11.85;6.70;;;;;;;;;;5085639;28;20051;-61
2024/01/21 01:11:41;;;;;;;14.40;7.65;;;;;;;;;;5080084;28;20175;-60
2024/01/21 01:14:08;;;;;;;12.48;7.30;;;;;;;;;;5086915;28;20479;-61
2024/01/21 01:16:38;;;;;;;11.98;6.75;;;;;;;;;;5081050;28;20707;-61
2024/01/21 01:19:05;;;;;;;11.13;6.30;;;;;;;;;;5083522;28;20452;-61
2024/01/21 01:21:32;;;;;;;15.88;6.90;;;;;;;;;;5080515;28;21550;-61
2024/01/21 01:23:59;;;;;;;10.05;6.15;;;;;;;;;;5085208;28;20077;-61
2024/01/21 01:26:25;;;;;;;10.23;5.95;;;;;;;;;;5088857;28;20516;-61
2024/01/21 01:28:51;;;;;;;10.43;6.50;;;;;;;;;;5061422;28;20044;-61
2024/01/21 01:31:18;;;;;;;9.57;5.25;;;;;;;;;;5083927;28;20130;-62
2024/01/21 01:33:45;;;;;;;10.77;6.28;;;;;;;;;;5076303;28;20056;-61
2024/01/21 01:36:11;;;;;;;10.15;6.88;;;;;;;;;;5081686;28;20071;-61
2024/01/21 01:38:38;;;;;;;11.98;6.68;;;;;;;;;;5085348;28;20087;-62
2024/01/21 01:41:05;;;;;;;10.88;6.53;;;;;;;;;;5063169;28;20056;-60
2024/01/21 01:43:32;;;;;;;12.05;6.38;;;;;;;;;;5086319;28;20083;-61
2024/01/21 01:46:00;;;;;;;9.93;6.07;;;;;;;;;;5080308;28;20052;-62
2024/01/21 01:48:27;;;;;;;12.18;6.57;;;;;;;;;;5080600;28;20102;-61
2024/01/21 01:50:55;;;;;;;9.43;5.93;;;;;;;;;;5066435;28;20044;-61
2024/01/21 01:53:22;;;;;;;13.05;6.47;;;;;;;;;;5084830;28;20036;-60
2024/01/21 01:55:48;;;;;;;11.90;6.97;;;;;;;;;;5085326;28;20050;-61
2024/01/21 01:58:16;;;;;;;11.30;7.07;;;;;;;;;;5075176;28;20520;-61
2024/01/21 02:00:42;;;;;;;11.48;6.53;;;;;;;;;;5061038;28;20048;-62
2024/01/21 02:03:09;;;;;;;12.15;6.50;;;;;;;;;;5074207;28;20039;-61
2024/01/21 02:05:36;;;;;;;10.32;6.50;;;;;;;;;;5085472;28;20050;-61
2024/01/21 02:08:03;;;;;;;11.43;6.47;;;;;;;;;;5082412;28;20048;-61
2024/01/21 02:10:30;;;;;;;12.35;6.57;;;;;;;;;;5083426;28;20623;-62
2024/01/21 02:12:57;;;;;;;12.23;6.18;;;;;;;;;;5085062;28;20526;-61
2024/01/21 02:15:23;;;;;;;11.07;6.13;;;;;;;;;;5074938;28;20044;-62
2024/01/21 02:17:50;;;;;;;11.45;6.32;;;;;;;;;;5080163;28;20138;-61
2024/01/21 02:20:16;;;;;;;11.93;6.30;;;;;;;;;;5080417;28;20050;-61
2024/01/21 02:22:43;;;;;;;13.35;7.25;;;;;;;;;;5084093;28;20051;-61
2024/01/21 02:25:09;;;;;;;11.52;6.13;;;;;;;;;;5085078;28;20089;-61
2024/01/21 02:27:37;;;;;;;9.65;5.68;;;;;;;;;;5075796;28;20137;-61
2024/01/21 02:30:04;;;;;;;10.80;6.57;;;;;;;;;;5089643;28;20132;-61
2024/01/21 02:32:31;;;;;;;11.73;7.03;;;;;;;;;;5082274;28;20051;-61
2024/01/21 02:34:57;;;;;;;9.48;5.68;;;;;;;;;;5085309;28;20041;-61
2024/01/21 02:37:23;;;;;;;13.90;6.35;;;;;;;;;;5084609;28;20443;-61
2024/01/21 02:39:50;;;;;;;10.05;5.65;;;;;;;;;;5083648;28;20113;-62
2024/01/21 02:42:16;;;;;;;11.88;5.95;;;;;;;;;;5063730;28;20492;-63
2024/01/21 02:44:43;;;;;;;10.65;6.20;;;;;;;;;;5079845;28;20078;-62
2024/01/21 02:47:09;;;;;;;10.32;5.85;;;;;;;;;;5092042;28;20087;-62
2024/01/21 02:49:36;;;;;;;13.68;6.38;;;;;;;;;;5079300;28;20083;-62
2024/01/21 02:52:02;;;;;;;10.13;5.53;;;;;;;;;;5084884;28;20101;-61
2024/01/21 02:54:29;;;;;;;8.50;5.18;;;;;;;;;;5084996;28;20126;-62
2024/01/21 02:56:55;;;;;;;12.20;5.68;;;;;;;;;;5076336;28;20074;-63
2024/01/21 02:59:21;;;;;;;8.82;5.47;;;;;;;;;;5082129;28;20048;-61
2024/01/21 03:01:48;;;;;;;11.02;5.38;;;;;;;;;;5078296;28;20154;-61
2024/01/21 03:04:14;;;;;;;9.30;5.10;;;;;;;;;;5085607;28;20062;-61
2024/01/21 03:06:41;;;;;;;8.63;5.18;;;;;;;;;;5076664;28;20109;-61
2024/01/21 03:09:08;;;;;;;10.40;5.78;;;;;;;;;;5084258;28;20136;-62
2024/01/21 03:11:35;;;;;;;10.27;5.18;;;;;;;;;;5079702;28;20156;-61
2024/01/21 03:14:02;;;;;;;9.02;5.35;;;;;;;;;;5065657;28;20312;-60
2024/01/21 03:16:28;;;;;;;9.82;5.60;;;;;;;;;;5085603;28;20529;-61
2024/01/21 03:18:55;;;;;;;9.25;5.00;;;;;;;;;;5085247;28;20517;-61
2024/01/21 03:21:22;;;;;;;8.07;4.72;;;;;;;;;;5084896;28;20084;-61
2024/01/21 03:23:48;;;;;;;12.13;5.47;;;;;;;;;;5080767;28;20040;-61
2024/01/21 03:26:15;;;;;;;9.75;5.15;;;;;;;;;;5076942;28;20076;-61
2024/01/21 03:28:41;;;;;;;9.32;4.80;;;;;;;;;;5084206;28;20079;-62
2024/01/21 03:31:07;;;;;;;7.70;4.65;;;;;;;;;;5079653;28;20048;-61
2024/01/21 03:33:34;;;;;;;9.48;5.07;;;;;;;;;;5090976;28;20044;-61
2024/01/21 03:36:01;;;;;;;9.48;4.60;;;;;;;;;;5082551;28;20059;-61
2024/01/21 03:38:27;;;;;;;8.68;4.82;;;;;;;;;;5085103;28;20093;-61
2024/01/21 03:40:54;;;;;;;9.50;4.72;;;;;;;;;;5085113;28;20044;-61
2024/01/21 03:43:20;;;;;;;8.07;4.90;;;;;;;;;;5070187;28;20145;-61
2024/01/21 03:45:46;;;;;;;8.80;4.40;;;;;;;;;;5088846;28;20113;-61
2024/01/21 03:48:13;;;;;;;8.48;4.70;;;;;;;;;;5083083;28;20145;-62
2024/01/21 03:50:40;;;;;;;9.23;4.50;;;;;;;;;;5088414;28;20084;-60
2024/01/21 03:53:06;;;;;;;8.07;4.43;;;;;;;;;;5078256;28;20139;-62
2024/01/21 03:55:32;;;;;;;8.07;4.00;;;;;;;;;;5075261;28;20515;-62
2024/01/21 03:57:59;;;;;;;8.50;4.63;;;;;;;;;;5084158;28;20071;-63
2024/01/21 04:00:25;;;;;;;10.30;4.93;;;;;;;;;;5082774;28;20438;-61
2024/01/21 04:02:52;;;;;;;9.70;4.78;;;;;;;;;;5093273;28;20044;-61
2024/01/21 04:05:18;;;;;;;7.55;4.13;;;;;;;;;;5080414;28;20126;-62
2024/01/21 04:07:45;;;;;;;8.63;4.20;;;;;;;;;;5082484;28;20452;-61
2024/01/21 04:10:11;;;;;;;6.82;3.90;;;;;;;;;;5088046;28;20486;-62
2024/01/21 04:12:37;;;;;;;7.90;4.10;;;;;;;;;;5082198;28;20580;-62
2024/01/21 04:15:04;;;;;;;6.93;3.95;;;;;;;;;;5080288;28;20477;-61
2024/01/21 04:17:31;;;;;;;7.20;3.90;;;;;;;;;;5084289;28;20147;-60
2024/01/21 04:19:57;;;;;;;7.22;3.72;;;;;;;;;;5076776;28;20044;-61
2024/01/21 04:22:23;;;;;;;8.32;4.30;;;;;;;;;;5086185;28;20039;-61
2024/01/21 04:24:50;;;;;;;8.98;4.40;;;;;;;;;;5090612;28;20040;-61
2024/01/21 04:27:16;;;;;;;6.70;3.63;;;;;;;;;;5087597;28;20804;-61
2024/01/21 04:29:43;;;;;;;5.32;3.33;;;;;;;;;;5082323;28;20135;-62
2024/01/21 04:32:09;;;;;;;7.43;4.15;;;;;;;;;;5088116;28;20052;-61
2024/01/21 04:34:35;;;;;;;7.25;3.83;;;;;;;;;;5081820;28;20047;-61
2024/01/21 04:37:02;;;;;;;7.20;3.80;;;;;;;;;;5083821;28;20070;-62
2024/01/21 04:39:29;;;;;;;7.82;4.13;;;;;;;;;;5089336;28;20112;-61
2024/01/21 04:41:56;;;;;;;8.75;4.53;;;;;;;;;;5086877;28;20559;-60
2024/01/21 04:44:22;;;;;;;8.00;4.35;;;;;;;;;;5087236;28;20084;-62
2024/01/21 04:46:48;;;;;;;8.60;3.80;;;;;;;;;;5079290;28;20048;-61
2024/01/21 04:49:15;;;;;;;9.90;4.22;;;;;;;;;;5082721;28;20138;-61
2024/01/21 04:51:41;;;;;;;8.75;4.03;;;;;;;;;;5077276;28;20048;-60
2024/01/21 04:54:08;;;;;;;8.07;4.50;;;;;;;;;;5078738;28;20051;-61
2024/01/21 04:56:36;;;;;;;8.75;3.95;;;;;;;;;;5085966;28;20040;-62
2024/01/21 04:59:02;;;;;;;7.03;4.25;;;;;;;;;;5081218;28;20048;-61
2024/01/21 05:01:29;;;;;;;8.57;4.28;;;;;;;;;;5081775;28;20054;-61
2024/01/21 05:03:55;;;;;;;7.03;3.85;;;;;;;;;;5077494;28;20060;-61
2024/01/21 05:06:22;;;;;;;6.47;3.47;;;;;;;;;;5086766;28;20050;-59
2024/01/21 05:08:48;;;;;;;7.20;3.88;;;;;;;;;;5093548;28;20070;-63
2024/01/21 05:11:15;;;;;;;8.40;3.90;;;;;;;;;;5085492;28;20661;-61
2024/01/21 05:13:41;;;;;;;7.82;3.45;;;;;;;;;;5086079;28;20044;-60
2024/01/21 05:16:17;;;;;;;7.07;3.92;;;;;;;;;;5075847;28;20044;-61
2024/01/21 05:18:44;;;;;;;9.63;4.40;;;;;;;;;;5094703;28;20043;-61
2024/01/21 05:21:11;;;;;;;6.32;3.70;;;;;;;;;;5081346;28;20056;-61
2024/01/21 05:23:38;;;;;;;8.52;4.38;;;;;;;;;;5087042;28;20047;-61
2024/01/21 05:26:04;;;;;;;7.38;3.90;;;;;;;;;;5081962;28;20039;-61
2024/01/21 05:28:31;;;;;;;5.50;3.03;;;;;;;;;;5083368;28;20135;-61
2024/01/21 05:30:57;;;;;;;7.43;3.90;;;;;;;;;;5081575;28;20078;-63
2024/01/21 05:33:24;;;;;;;7.55;3.70;;;;;;;;;;5081632;28;20051;-61
2024/01/21 05:35:50;;;;;;;6.53;3.50;;;;;;;;;;5085825;28;20048;-61
2024/01/21 05:38:16;;;;;;;9.77;3.35;;;;;;;;;;5071143;28;20071;-62
2024/01/21 05:40:43;;;;;;;7.22;4.15;;;;;;;;;;5086796;28;20392;-61
2024/01/21 05:43:10;;;;;;;7.18;3.83;;;;;;;;;;5082823;28;20369;-61
2024/01/21 05:45:36;;;;;;;6.88;3.65;;;;;;;;;;5076976;28;20059;-61
2024/01/21 05:48:03;;;;;;;7.70;3.90;;;;;;;;;;5084804;28;20052;-62
2024/01/21 05:50:29;;;;;;;6.63;3.40;;;;;;;;;;5079350;28;20044;-61
2024/01/21 05:52:55;;;;;;;8.55;4.10;;;;;;;;;;5086066;28;20488;-62
2024/01/21 05:55:22;;;;;;;7.40;3.53;;;;;;;;;;5073301;28;20055;-60
2024/01/21 05:57:48;;;;;;;8.32;3.92;;;;;;;;;;5080164;28;20056;-62
2024/01/21 06:00:15;;;;;;;5.78;3.35;;;;;;;;;;5082926;28;20634;-61
2024/01/21 06:02:42;;;;;;;7.07;3.75;;;;;;;;;;5079777;28;20094;-62
2024/01/21 06:05:08;;;;;;;7.45;3.38;;;;;;;;;;5086831;28;20537;-61
2024/01/21 06:07:35;;;;;;;6.60;3.50;;;;;;;;;;5062005;28;20460;-61
2024/01/21 06:10:01;;;;;;;5.97;3.55;;;;;;;;;;5085425;28;20101;-61
2024/01/21 06:12:28;;;;;;;6.22;3.40;;;;;;;;;;5077080;28;20140;-63
2024/01/21 06:14:54;;;;;;;6.90;3.40;;;;;;;;;;5088749;28;20047;-62
2024/01/21 06:17:21;;;;;;;7.80;3.83;;;;;;;;;;5090151;28;20055;-61
2024/01/21 06:19:47;;;;;;;6.72;3.60;;;;;;;;;;5085830;28;20712;-62
2024/01/21 06:22:14;;;;;;;8.43;3.75;;;;;;;;;;5086070;28;20044;-61
2024/01/21 06:24:40;;;;;;;6.43;3.67;;;;;;;;;;5075860;28;20101;-63
2024/01/21 06:27:07;;;;;;;6.53;3.70;;;;;;;;;;5081245;28;20780;-62
2024/01/21 06:29:33;;;;;;;6.75;3.88;;;;;;;;;;5086074;28;20052;-62
2024/01/21 06:32:00;;;;;;;7.88;3.70;;;;;;;;;;5079407;28;20115;-61
2024/01/21 06:34:26;;;;;;;7.60;3.50;;;;;;;;;;5092537;28;20353;-61
2024/01/21 06:36:53;;;;;;;8.82;4.25;;;;;;;;;;5072532;28;20063;-59
2024/01/21 06:39:19;;;;;;;6.60;3.72;;;;;;;;;;5086349;28;20162;-61
2024/01/21 06:41:46;;;;;;;6.93;3.67;;;;;;;;;;5076287;28;20041;-62
2024/01/21 06:44:12;;;;;;;9.20;4.07;;;;;;;;;;5084826;28;20532;-60
2024/01/21 06:46:38;;;;;;;12.25;4.63;;;;;;;;;;5090818;28;20085;-61
2024/01/21 06:49:05;;;;;;;7.13;4.03;;;;;;;;;;5079954;28;20055;-59
2024/01/21 06:51:34;;;;;;;9.32;4.78;;;;;;;;;;5085380;28;20134;-62
2024/01/21 06:54:00;;;;;;;;;;;;;;;;;;5071710;28;20083;-61
2024/01/21 06:56:27;;;;;;;7.90;4.22;;;;;;;;;;5083925;28;19978;-61
2024/01/21 06:58:53;;;;;;;10.95;4.45;;;;;;;;;;5093699;28;20082;-61
2024/01/21 07:01:20;;;;;;;7.30;4.07;;;;;;;;;;5080490;28;20537;-62
2024/01/21 07:03:46;;;;;;;7.95;4.38;;;;;;;;;;5085341;28;20040;-61
2024/01/21 07:06:13;;;;;;;7.32;4.35;;;;;;;;;;5076474;28;20121;-61
2024/01/21 07:08:40;;;;;;;7.47;4.35;;;;;;;;;;5082684;28;20047;-62
2024/01/21 07:11:07;;;;;;;9.70;4.70;;;;;;;;;;5089196;28;20040;-60
2024/01/21 07:13:34;;;;;;;8.98;4.63;;;;;;;;;;5092252;28;20054;-61
2024/01/21 07:16:01;;;;;;;7.93;4.03;;;;;;;;;;5070830;28;20052;-60
2024/01/21 07:18:27;;;;;;;8.13;4.63;;;;;;;;;;5073699;28;20565;-62
2024/01/21 07:20:54;;;;;;;10.98;4.90;;;;;;;;;;5086303;28;20040;-61
2024/01/21 07:23:20;;;;;;;7.80;4.28;;;;;;;;;;5076165;28;20101;-61
2024/01/21 07:25:47;;;;;;;8.93;4.88;;;;;;;;;;5089473;28;20135;-62
2024/01/21 07:28:13;;;;;;;8.40;4.70;;;;;;;;;;5066877;28;20534;-63
2024/01/21 07:30:40;;;;;;;8.43;4.53;;;;;;;;;;5088102;28;20048;-62
2024/01/21 07:33:07;;;;;;;8.50;4.60;;;;;;;;;;5089225;28;20486;-61
2024/01/21 07:35:33;;;;;;;8.52;4.50;;;;;;;;;;5077753;28;20098;-61
2024/01/21 07:37:59;;;;;;;9.77;4.68;;;;;;;;;;5093806;28;20629;-62
2024/01/21 07:40:27;;;;;;;8.25;4.70;;;;;;;;;;5084771;28;20109;-61
2024/01/21 07:42:53;;;;;;;8.23;4.75;;;;;;;;;;5088624;28;20044;-61
2024/01/21 07:45:20;;;;;;;8.40;4.78;;;;;;;;;;5088411;28;20442;-61
2024/01/21 07:47:48;;;;;;;9.10;4.47;;;;;;;;;;5081680;28;20044;-62
2024/01/21 07:50:14;;;;;;;10.25;4.97;;;;;;;;;;5085428;28;20046;-62
2024/01/21 07:52:42;;;;;;;8.75;5.05;;;;;;;;;;5083102;28;20044;-62
2024/01/21 07:55:09;;;;;;;8.27;4.57;;;;;;;;;;5087721;28;20079;-63
2024/01/21 07:57:38;;;;;;;7.80;5.00;;;;;;;;;;5082244;28;20052;-63
2024/01/21 08:00:05;;;;;;;7.93;4.13;;;;;;;;;;5087171;28;20506;-63
2024/01/21 08:02:31;;;;;;;8.52;4.28;;;;;;;;;;5082593;28;20128;-63
2024/01/21 08:04:58;;;;;;;10.43;5.03;;;;;;;;;;5061039;28;20503;-63
2024/01/21 08:07:26;;;;;;;8.70;4.65;;;;;;;;;;5085255;28;20036;-62
2024/01/21 08:09:53;;;;;;;9.10;4.85;;;;;;;;;;5081256;28;20226;-62
2024/01/21 08:12:19;;;;;;;10.65;5.35;;;;;;;;;;5087272;28;20047;-63
2024/01/21 08:14:46;;;;;;;8.23;4.38;;;;;;;;;;5085597;28;20048;-63
2024/01/21 08:17:13;;;;;;;9.35;4.85;;;;;;;;;;5079604;28;20043;-63
2024/01/21 08:19:40;;;;;;;7.93;4.63;;;;;;;;;;5081479;28;20124;-62
2024/01/21 08:22:07;;;;;;;10.38;4.60;;;;;;;;;;5079319;28;20055;-62
2024/01/21 08:24:34;;;;;;;10.88;4.97;;;;;;;;;;5087874;28;20400;-64
2024/01/21 08:27:05;;;;;;;7.85;4.30;;;;;;;;;;5076254;28;20051;-62
2024/01/21 08:29:33;;;;;;;10.10;5.15;;;;;;;;;;5066063;28;20055;-63
2024/01/21 08:32:02;;;;;;;7.55;4.03;;;;;;;;;;5083205;28;20544;-63
2024/01/21 08:34:29;;;;;;;8.45;5.28;;;;;;;;;;5081707;28;20067;-63
2024/01/21 08:36:57;;;;;;;10.07;5.47;;;;;;;;;;5087098;28;20110;-63
2024/01/21 08:39:23;;;;;;;7.22;4.05;;;;;;;;;;5071269;28;20286;-63
2024/01/21 08:41:50;;;;;;;7.88;4.38;;;;;;;;;;5087306;28;20048;-63
2024/01/21 08:44:17;;;;;;;7.00;4.28;;;;;;;;;;5078599;28;20923;-64
2024/01/21 08:46:46;;;;;;;8.52;4.40;;;;;;;;;;5064136;28;20052;-62
2024/01/21 08:49:13;;;;;;;8.02;4.47;;;;;;;;;;5095465;28;20122;-62
2024/01/21 08:51:41;;;;;;;6.88;4.07;;;;;;;;;;5082916;28;20686;-62
2024/01/21 08:54:07;;;;;;;9.30;4.40;;;;;;;;;;5092548;28;20044;-63
2024/01/21 08:56:35;;;;;;;5.55;3.50;;;;;;;;;;5079117;28;20081;-64
2024/01/21 08:59:01;;;;;;;8.48;4.72;;;;;;;;;;5064649;28;20080;-62
2024/01/21 09:01:28;;;;;;;8.98;4.80;;;;;;;;;;5081407;28;20048;-63
2024/01/21 09:03:55;;;;;;;7.28;4.78;;;;;;;;;;5094722;28;20048;-63
2024/01/21 09:06:21;;;;;;;9.13;4.53;;;;;;;;;;5085217;28;20054;-62
2024/01/21 09:08:52;;;;;;;7.30;4.50;;;;;;;;;;5079094;28;20085;-62
2024/01/21 09:11:20;;;;;;;7.13;4.28;;;;;;;;;;5079492;28;20052;-67
2024/01/21 09:13:46;;;;;;;9.65;4.82;;;;;;;;;;5080478;28;20047;-63
2024/01/21 09:16:16;;;;;;;11.68;4.75;;;;;;;;;;5091065;28;20127;-63
2024/01/21 09:18:43;;;;;;;8.23;4.60;;;;;;;;;;5096802;28;20423;-62
2024/01/21 09:21:10;;;;;;;7.82;4.28;;;;;;;;;;5080887;28;20741;-63
2024/01/21 09:23:53;;;;;;;5.75;3.80;;;;;;;;;;5071700;28;20472;-62
2024/01/21 09:26:19;;;;;;;7.50;3.92;;;;;;;;;;5077836;28;20131;-63
2024/01/21 09:28:46;;;;;;;9.35;5.18;;;;;;;;;;5086022;28;20508;-61
2024/01/21 09:31:12;;;;;;;6.65;4.05;;;;;;;;;;5061572;28;20075;-63
2024/01/21 09:33:38;;;;;;;9.18;4.85;;;;;;;;;;5086286;28;20114;-63
2024/01/21 09:36:05;;;;;;;8.48;4.38;;;;;;;;;;5087121;28;20048;-64
2024/01/21 09:38:32;;;;;;;7.70;4.28;;;;;;;;;;5085316;28;20069;-62
2024/01/21 09:41:07;;;;;;;9.32;5.10;;;;;;;;;;5073505;28;20048;-63
2024/01/21 09:43:37;;;;;;;9.38;4.22;;;;;;;;;;5076984;28;20052;-64
2024/01/21 09:46:05;;;;;;;8.48;4.25;;;;;;;;;;5086212;28;20696;-63
2024/01/21 09:48:33;;;;;;;8.70;4.53;;;;;;;;;;5079564;28;20048;-64
2024/01/21 09:51:00;;;;;;;9.48;4.43;;;;;;;;;;5080544;28;20389;-65
2024/01/21 09:53:27;;;;;;;8.20;4.28;;;;;;;;;;5087933;28;20059;-63
2024/01/21 09:55:56;;;;;;;8.45;4.00;;;;;;;;;;5059945;28;20139;-64
2024/01/21 09:58:22;;;;;;;;;;;;;;;;;;5084106;28;20646;-63
2024/01/21 10:00:49;;;;;;;6.97;4.03;;;;;;;;;;5078563;28;20799;-65
2024/01/21 10:03:16;;;;;;;8.98;4.20;;;;;;;;;;5085033;28;20075;-63
2024/01/21 10:05:43;;;;;;;7.10;4.13;;;;;;;;;;5072288;28;20051;-64
2024/01/21 10:08:10;;;;;;;10.23;4.18;;;;;;;;;;5078838;28;20144;-64
2024/01/21 10:10:37;;;;;;;9.43;4.72;;;;;;;;;;5087574;28;20039;-64
2024/01/21 10:13:03;;;;;;;8.75;4.28;;;;;;;;;;5073587;28;20460;-64
2024/01/21 10:15:30;;;;;;;8.95;4.80;;;;;;;;;;5084771;28;20048;-64
2024/01/21 10:17:56;;;;;;;6.88;4.05;;;;;;;;;;5080146;28;20036;-63
2024/01/21 10:20:23;;;;;;;7.72;4.00;;;;;;;;;;5080928;28;20036;-65
2024/01/21 10:22:50;;;;;;;10.13;5.75;;;;;;;;;;5080949;28;20068;-66
2024/01/21 10:25:17;;;;;;;9.63;5.53;;;;;;;;;;5080246;28;20101;-64
2024/01/21 10:27:50;;;;;;;7.60;5.03;;;;;;;;;;5084668;28;20101;-63
2024/01/21 10:30:18;;;;;;;6.85;4.43;;;;;;;;;;5079741;28;20056;-63
2024/01/21 10:32:44;;;;;;;9.23;5.47;;;;;;;;;;5083786;28;20052;-63
2024/01/21 10:35:11;;;;;;;9.07;5.00;;;;;;;;;;5056324;28;20535;-62
2024/01/21 10:37:41;;;;;;;8.07;5.13;;;;;;;;;;5086842;28;20055;-63
2024/01/21 10:40:10;;;;;;;8.55;5.18;;;;;;;;;;5084941;28;20052;-63
2024/01/21 10:42:39;;;;;;;10.38;4.72;;;;;;;;;;5080388;28;20075;-62
2024/01/21 10:45:06;;;;;;;11.07;5.03;;;;;;;;;;5087599;28;20048;-64
2024/01/21 10:47:33;;;;;;;6.43;3.88;;;;;;;;;;5079728;28;20044;-62
2024/01/21 10:50:01;;;;;;;12.80;4.95;;;;;;;;;;5083684;28;20048;-62
2024/01/21 10:52:27;;;;;;;6.88;4.45;;;;;;;;;;5084519;28;20063;-62
2024/01/21 10:54:54;;;;;;;10.77;5.10;;;;;;;;;;5087807;28;20048;-62
2024/01/21 10:57:21;;;;;;;8.60;5.20;;;;;;;;;;5092235;28;20063;-63
2024/01/21 10:59:47;;;;;;;9.02;4.93;;;;;;;;;;5082331;28;20048;-63
2024/01/21 11:02:19;;;;;;;8.45;4.88;;;;;;;;;;5085295;28;20051;-62
2024/01/21 11:04:45;;;;;;;8.63;5.20;;;;;;;;;;5079586;28;20075;-64
2024/01/21 11:07:13;;;;;;;9.27;5.93;;;;;;;;;;5090840;28;20067;-62
2024/01/21 11:09:40;;;;;;;8.90;4.70;;;;;;;;;;5068703;28;20044;-61
2024/01/21 11:12:07;;;;;;;8.20;4.18;;;;;;;;;;5087479;28;20055;-61
2024/01/21 11:14:34;;;;;;;9.73;5.00;;;;;;;;;;5086500;28;20058;-62
2024/01/21 11:17:05;;;;;;;9.48;4.80;;;;;;;;;;5081476;28;20051;-61
2024/01/21 11:19:40;;;;;;;8.23;4.55;;;;;;;;;;5089325;28;20126;-60
2024/01/21 11:22:09;;;;;;;8.52;5.22;;;;;;;;;;5071426;28;20035;-61
2024/01/21 11:24:36;;;;;;;7.35;4.88;;;;;;;;;;5088604;28;20040;-60
2024/01/21 11:27:03;;;;;;;9.00;5.25;;;;;;;;;;5085415;28;20535;-65
2024/01/21 11:29:30;;;;;;;8.13;4.72;;;;;;;;;;5076716;28;20470;-62
2024/01/21 11:31:57;;;;;;;8.85;5.28;;;;;;;;;;5088268;28;20078;-61
2024/01/21 11:34:25;;;;;;;8.20;5.25;;;;;;;;;;5082713;28;20076;-61
2024/01/21 11:36:51;;;;;;;9.95;5.53;;;;;;;;;;5087419;28;20787;-62
2024/01/21 11:39:20;;;;;;;8.70;5.40;;;;;;;;;;5093817;28;20047;-61
2024/01/21 11:41:46;;;;;;;8.35;5.45;;;;;;;;;;5083363;28;20047;-62
2024/01/21 11:44:23;;;;;;;10.65;4.93;;;;;;;;;;5066421;28;20480;-61
2024/01/21 11:46:56;;;;;;;8.70;4.82;;;;;;;;;;5082135;28;20051;-61
2024/01/21 11:49:23;;;;;;;6.73;4.77;;;;;;;;;;5087664;28;20044;-61
2024/01/21 11:51:50;;;;;;;10.50;5.43;;;;;;;;;;5081365;28;20524;-60
2024/01/21 11:54:16;;;;;;;7.47;4.43;;;;;;;;;;5088710;28;20471;-61
2024/01/21 11:56:43;;;;;;;10.82;4.97;;;;;;;;;;5078630;28;20131;-61
2024/01/21 11:59:12;;;;;;;7.75;4.68;;;;;;;;;;5083187;28;20048;-62
2024/01/21 12:01:39;;;;;;;8.48;5.18;;;;;;;;;;5087902;28;20039;-62
2024/01/21 12:04:07;;;;;;;9.10;4.57;;;;;;;;;;5079650;28;20044;-61
2024/01/21 12:06:50;;;;;;;8.90;5.78;;;;;;;;;;5080484;28;20047;-61
2024/01/21 12:09:17;;;;;;;7.82;4.68;;;;;;;;;;5080056;28;20048;-63
2024/01/21 12:11:43;;;;;;;10.38;6.45;;;;;;;;;;5082998;28;20446;-61
2024/01/21 12:14:14;;;;;;;7.68;4.57;;;;;;;;;;5082759;28;20534;-62
2024/01/21 12:16:41;;;;;;;9.00;5.10;;;;;;;;;;5087256;28;20052;-61
2024/01/21 12:19:09;;;;;;;11.55;5.35;;;;;;;;;;5086968;28;20083;-64
2024/01/21 12:21:36;;;;;;;9.48;6.45;;;;;;;;;;5080871;28;20127;-62
2024/01/21 12:24:03;;;;;;;10.50;5.28;;;;;;;;;;5084654;28;20044;-62
2024/01/21 12:26:29;;;;;;;9.52;5.60;;;;;;;;;;5078585;28;20053;-63
2024/01/21 12:28:56;;;;;;;9.88;5.55;;;;;;;;;;5087510;28;20207;-63
2024/01/21 12:31:26;;;;;;;11.80;5.45;;;;;;;;;;5069236;28;20076;-62
2024/01/21 12:33:52;;;;;;;8.30;5.22;;;;;;;;;;5084650;28;20066;-62
2024/01/21 12:36:19;;;;;;;9.00;5.90;;;;;;;;;;5087677;28;20682;-63
2024/01/21 12:38:46;;;;;;;8.68;5.30;;;;;;;;;;5085222;28;20048;-66
2024/01/21 12:41:13;;;;;;;10.80;6.38;;;;;;;;;;5085492;28;20684;-65
2024/01/21 12:43:41;;;;;;;9.85;5.53;;;;;;;;;;5081267;28;20048;-64
2024/01/21 12:46:09;;;;;;;8.38;5.03;;;;;;;;;;5086907;28;20549;-64
2024/01/21 12:48:36;;;;;;;10.53;5.20;;;;;;;;;;5083869;28;20468;-61
2024/01/21 12:51:03;;;;;;;9.00;5.20;;;;;;;;;;5071645;28;20478;-63
2024/01/21 12:53:29;;;;;;;8.27;4.88;;;;;;;;;;5071430;28;20054;-64
2024/01/21 12:55:55;;;;;;;8.88;5.30;;;;;;;;;;5081070;28;20056;-63
2024/01/21 12:58:22;;;;;;;11.18;5.88;;;;;;;;;;5085841;28;20162;-63
2024/01/21 13:00:48;;;;;;;8.18;5.22;;;;;;;;;;5082168;28;20870;-63
2024/01/21 13:03:15;;;;;;;10.32;5.40;;;;;;;;;;5091602;28;20807;-62
2024/01/21 13:05:46;;;;;;;11.07;6.05;;;;;;;;;;5084942;28;20075;-63
2024/01/21 13:08:13;;;;;;;9.15;5.65;;;;;;;;;;5077133;28;20482;-62
2024/01/21 13:10:40;;;;;;;10.00;5.30;;;;;;;;;;5082123;28;20049;-62
2024/01/21 13:13:06;;;;;;;8.70;5.53;;;;;;;;;;5055513;28;20097;-63
2024/01/21 13:15:33;;;;;;;8.95;5.50;;;;;;;;;;5086825;28;20070;-63
2024/01/21 13:18:00;;;;;;;12.20;6.20;;;;;;;;;;5081728;28;20124;-63
2024/01/21 13:20:26;;;;;;;8.80;5.40;;;;;;;;;;5078154;28;20152;-62
2024/01/21 13:22:53;;;;;;;10.57;5.93;;;;;;;;;;5082136;28;20080;-62
2024/01/21 13:25:23;;;;;;;10.65;5.88;;;;;;;;;;5080340;28;20075;-64
2024/01/21 13:28:06;;;;;;;10.57;5.47;;;;;;;;;;5080278;28;20074;-64
2024/01/21 13:30:46;;;;;;;9.07;5.43;;;;;;;;;;5080893;28;20480;-63
2024/01/21 13:33:13;;;;;;;11.88;5.70;;;;;;;;;;5085185;28;20052;-62
2024/01/21 13:35:44;;;;;;;9.60;5.72;;;;;;;;;;5080323;28;20052;-62
2024/01/21 13:38:18;;;;;;;11.73;7.30;;;;;;;;;;5084010;28;20484;-65
2024/01/21 13:40:46;;;;;;;9.52;5.72;;;;;;;;;;5077575;28;20399;-63
2024/01/21 13:43:13;;;;;;;9.25;5.90;;;;;;;;;;5077235;28;20389;-61
2024/01/21 13:45:40;;;;;;;8.27;5.50;;;;;;;;;;5082730;28;20147;-63
2024/01/21 13:48:06;;;;;;;11.57;6.40;;;;;;;;;;5080418;28;20040;-62
2024/01/21 13:50:33;;;;;;;10.43;5.68;;;;;;;;;;5086486;28;20048;-62
2024/01/21 13:53:01;;;;;;;10.82;6.15;;;;;;;;;;5085897;28;20051;-63
2024/01/21 13:55:27;;;;;;;11.40;5.85;;;;;;;;;;5087261;28;20110;-63
2024/01/21 13:57:54;;;;;;;11.13;5.82;;;;;;;;;;5084803;28;20068;-62
2024/01/21 14:00:23;;;;;;;10.48;5.93;;;;;;;;;;5082000;28;20461;-61
2024/01/21 14:02:54;;;;;;;13.23;6.10;;;;;;;;;;5084947;28;20487;-62
2024/01/21 14:05:21;;;;;;;10.80;5.35;;;;;;;;;;5062350;28;20169;-65
2024/01/21 14:07:48;;;;;;;11.15;5.13;;;;;;;;;;5083392;28;20052;-65
2024/01/21 14:10:15;;;;;;;9.77;5.63;;;;;;;;;;5079699;28;20060;-64
2024/01/21 14:12:42;;;;;;;8.10;5.15;;;;;;;;;;5074862;28;20048;-63
2024/01/21 14:15:11;;;;;;;12.27;6.00;;;;;;;;;;5085627;28;20048;-62
2024/01/21 14:17:37;;;;;;;10.70;5.50;;;;;;;;;;5079697;28;20115;-62
2024/01/21 14:20:04;;;;;;;8.88;5.13;;;;;;;;;;5084610;28;20400;-61
2024/01/21 14:22:31;;;;;;;10.40;5.82;;;;;;;;;;5079482;28;20056;-62
2024/01/21 14:25:04;;;;;;;15.75;6.25;;;;;;;;;;5085529;28;20104;-62
2024/01/21 14:27:31;;;;;;;10.23;5.75;;;;;;;;;;5079998;28;20590;-63
2024/01/21 14:30:02;;;;;;;9.63;5.57;;;;;;;;;;5084173;28;20044;-63
2024/01/21 14:32:28;;;;;;;10.93;5.78;;;;;;;;;;5067443;28;20721;-63
2024/01/21 14:34:54;;;;;;;9.93;5.57;;;;;;;;;;5079592;28;20063;-61
2024/01/21 14:37:21;;;;;;;11.77;6.13;;;;;;;;;;5085496;28;20060;-63